sensor_id;sensor_type;location;lat;lon;timestamp;P1;durP1;ratioP1;P2;durP2;ratioP2
79638;SDS011;69114;49.108;8.280;2023-06-10T00:01:18;11.32;;;9.25;;
79638;SDS011;69114;49.108;8.280;2023-06-10T00:03:43;10.70;;;9.13;;
79638;SDS011;69114;49.108;8.280;2023-06-10T00:06:08;10.70;;;9.60;;
79638;SDS011;69114;49.108;8.280;2023-06-10T00:08:33;11.52;;;9.70;;
79638;SDS011;69114;49.108;8.280;2023-06-10T00:10:59;11.13;;;9.87;;
79638;SDS011;69114;49.108;8.280;2023-06-10T00:13:25;10.50;;;9.45;;
79638;SDS011;69114;49.108;8.280;2023-06-10T00:15:50;10.60;;;9.40;;
79638;SDS011;69114;49.108;8.280;2023-06-10T00:18:15;11.23;;;10.10;;
79638;SDS011;69114;49.108;8.280;2023-06-10T00:20:41;10.00;;;9.00;;
79638;SDS011;69114;49.108;8.280;2023-06-10T00:23:07;10.80;;;9.70;;
79638;SDS011;69114;49.108;8.280;2023-06-10T00:25:33;9.25;;;8.35;;
79638;SDS011;69114;49.108;8.280;2023-06-10T00:27:58;12.77;;;9.75;;
79638;SDS011;69114;49.108;8.280;2023-06-10T00:30:24;11.37;;;9.70;;
79638;SDS011;69114;49.108;8.280;2023-06-10T00:32:49;10.88;;;9.63;;
79638;SDS011;69114;49.108;8.280;2023-06-10T00:35:14;11.30;;;10.20;;
79638;SDS011;69114;49.108;8.280;2023-06-10T00:37:39;12.63;;;10.63;;
79638;SDS011;69114;49.108;8.280;2023-06-10T00:40:05;11.17;;;10.03;;
79638;SDS011;69114;49.108;8.280;2023-06-10T00:42:30;12.95;;;9.52;;
79638;SDS011;69114;49.108;8.280;2023-06-10T00:44:56;10.77;;;9.77;;
79638;SDS011;69114;49.108;8.280;2023-06-10T00:47:21;10.45;;;9.35;;
79638;SDS011;69114;49.108;8.280;2023-06-10T00:49:47;10.40;;;8.90;;
79638;SDS011;69114;49.108;8.280;2023-06-10T00:52:14;10.50;;;9.40;;
79638;SDS011;69114;49.108;8.280;2023-06-10T00:54:39;9.63;;;8.60;;
79638;SDS011;69114;49.108;8.280;2023-06-10T00:57:05;12.25;;;9.30;;
79638;SDS011;69114;49.108;8.280;2023-06-10T00:59:30;10.93;;;9.18;;
79638;SDS011;69114;49.108;8.280;2023-06-10T01:01:56;10.95;;;9.77;;
79638;SDS011;69114;49.108;8.280;2023-06-10T01:04:22;12.07;;;10.07;;
79638;SDS011;69114;49.108;8.280;2023-06-10T01:06:57;9.95;;;8.95;;
79638;SDS011;69114;49.108;8.280;2023-06-10T01:14:49;10.07;;;9.00;;
79638;SDS011;69114;49.108;8.280;2023-06-10T01:17:16;11.43;;;9.35;;
79638;SDS011;69114;49.108;8.280;2023-06-10T01:19:43;11.55;;;10.35;;
79638;SDS011;69114;49.108;8.280;2023-06-10T01:22:09;9.98;;;8.98;;
79638;SDS011;69114;49.108;8.280;2023-06-10T01:24:35;10.88;;;9.68;;
79638;SDS011;69114;49.108;8.280;2023-06-10T01:27:01;11.43;;;9.40;;
79638;SDS011;69114;49.108;8.280;2023-06-10T01:29:31;16.05;;;10.70;;
79638;SDS011;69114;49.108;8.280;2023-06-10T01:32:02;10.90;;;9.65;;
79638;SDS011;69114;49.108;8.280;2023-06-10T01:34:28;10.95;;;9.77;;
79638;SDS011;69114;49.108;8.280;2023-06-10T01:36:56;12.15;;;9.68;;
79638;SDS011;69114;49.108;8.280;2023-06-10T01:39:22;10.60;;;9.23;;
79638;SDS011;69114;49.108;8.280;2023-06-10T01:41:49;10.98;;;9.57;;
79638;SDS011;69114;49.108;8.280;2023-06-10T01:44:17;11.50;;;9.52;;
79638;SDS011;69114;49.108;8.280;2023-06-10T01:46:43;10.35;;;9.30;;
79638;SDS011;69114;49.108;8.280;2023-06-10T01:49:08;10.30;;;9.13;;
79638;SDS011;69114;49.108;8.280;2023-06-10T01:51:33;13.20;;;10.73;;
79638;SDS011;69114;49.108;8.280;2023-06-10T01:53:58;11.40;;;9.63;;
79638;SDS011;69114;49.108;8.280;2023-06-10T01:56:23;12.83;;;11.30;;
79638;SDS011;69114;49.108;8.280;2023-06-10T01:58:49;10.73;;;9.63;;
79638;SDS011;69114;49.108;8.280;2023-06-10T02:01:15;11.80;;;10.60;;
79638;SDS011;69114;49.108;8.280;2023-06-10T02:03:40;11.33;;;9.20;;
79638;SDS011;69114;49.108;8.280;2023-06-10T02:06:06;12.20;;;10.73;;
79638;SDS011;69114;49.108;8.280;2023-06-10T02:08:31;10.50;;;9.40;;
79638;SDS011;69114;49.108;8.280;2023-06-10T02:10:56;10.23;;;9.23;;
79638;SDS011;69114;49.108;8.280;2023-06-10T02:13:21;10.90;;;8.47;;
79638;SDS011;69114;49.108;8.280;2023-06-10T02:15:46;10.23;;;8.30;;
79638;SDS011;69114;49.108;8.280;2023-06-10T02:18:12;9.00;;;8.13;;
79638;SDS011;69114;49.108;8.280;2023-06-10T02:20:40;11.67;;;8.80;;
79638;SDS011;69114;49.108;8.280;2023-06-10T02:23:05;11.95;;;8.85;;
79638;SDS011;69114;49.108;8.280;2023-06-10T02:25:30;9.43;;;8.50;;
79638;SDS011;69114;49.108;8.280;2023-06-10T02:27:56;12.17;;;9.03;;
79638;SDS011;69114;49.108;8.280;2023-06-10T02:30:21;11.93;;;9.03;;
79638;SDS011;69114;49.108;8.280;2023-06-10T02:32:46;9.80;;;8.90;;
79638;SDS011;69114;49.108;8.280;2023-06-10T02:35:13;10.15;;;8.95;;
79638;SDS011;69114;49.108;8.280;2023-06-10T02:37:38;10.38;;;8.82;;
79638;SDS011;69114;49.108;8.280;2023-06-10T02:40:04;10.13;;;8.77;;
79638;SDS011;69114;49.108;8.280;2023-06-10T02:42:29;9.15;;;8.15;;
79638;SDS011;69114;49.108;8.280;2023-06-10T02:44:55;10.87;;;8.70;;
79638;SDS011;69114;49.108;8.280;2023-06-10T02:47:20;9.48;;;8.50;;
79638;SDS011;69114;49.108;8.280;2023-06-10T02:49:45;10.47;;;8.40;;
79638;SDS011;69114;49.108;8.280;2023-06-10T02:52:10;9.63;;;8.53;;
79638;SDS011;69114;49.108;8.280;2023-06-10T02:54:36;11.05;;;9.27;;
79638;SDS011;69114;49.108;8.280;2023-06-10T02:57:02;10.20;;;9.13;;
79638;SDS011;69114;49.108;8.280;2023-06-10T02:59:27;10.45;;;9.13;;
79638;SDS011;69114;49.108;8.280;2023-06-10T03:01:53;9.90;;;8.63;;
79638;SDS011;69114;49.108;8.280;2023-06-10T03:04:19;9.68;;;8.68;;
79638;SDS011;69114;49.108;8.280;2023-06-10T03:06:45;10.32;;;9.23;;
79638;SDS011;69114;49.108;8.280;2023-06-10T03:09:12;9.70;;;8.70;;
79638;SDS011;69114;49.108;8.280;2023-06-10T03:11:37;9.70;;;8.03;;
79638;SDS011;69114;49.108;8.280;2023-06-10T03:14:02;9.17;;;8.27;;
79638;SDS011;69114;49.108;8.280;2023-06-10T03:16:27;11.13;;;8.60;;
79638;SDS011;69114;49.108;8.280;2023-06-10T03:18:53;13.50;;;8.30;;
79638;SDS011;69114;49.108;8.280;2023-06-10T03:21:18;10.27;;;8.60;;
79638;SDS011;69114;49.108;8.280;2023-06-10T03:23:43;12.03;;;9.07;;
79638;SDS011;69114;49.108;8.280;2023-06-10T03:26:08;9.03;;;8.13;;
79638;SDS011;69114;49.108;8.280;2023-06-10T03:28:35;9.43;;;8.38;;
79638;SDS011;69114;49.108;8.280;2023-06-10T03:31:00;10.87;;;9.27;;
79638;SDS011;69114;49.108;8.280;2023-06-10T03:33:25;11.03;;;8.33;;
79638;SDS011;69114;49.108;8.280;2023-06-10T03:35:51;10.88;;;9.77;;
79638;SDS011;69114;49.108;8.280;2023-06-10T03:38:16;12.63;;;9.13;;
79638;SDS011;69114;49.108;8.280;2023-06-10T03:40:41;11.93;;;9.70;;
79638;SDS011;69114;49.108;8.280;2023-06-10T03:43:06;12.27;;;9.88;;
79638;SDS011;69114;49.108;8.280;2023-06-10T03:45:32;12.90;;;9.97;;
79638;SDS011;69114;49.108;8.280;2023-06-10T03:47:57;11.93;;;9.70;;
79638;SDS011;69114;49.108;8.280;2023-06-10T03:50:22;11.40;;;10.30;;
79638;SDS011;69114;49.108;8.280;2023-06-10T03:52:48;11.90;;;10.70;;
79638;SDS011;69114;49.108;8.280;2023-06-10T03:55:13;12.73;;;10.23;;
79638;SDS011;69114;49.108;8.280;2023-06-10T03:57:39;10.83;;;9.83;;
79638;SDS011;69114;49.108;8.280;2023-06-10T04:00:04;11.38;;;10.15;;
79638;SDS011;69114;49.108;8.280;2023-06-10T04:02:37;11.48;;;10.18;;
79638;SDS011;69114;49.108;8.280;2023-06-10T04:05:02;14.37;;;11.40;;
79638;SDS011;69114;49.108;8.280;2023-06-10T04:07:27;11.57;;;9.07;;
79638;SDS011;69114;49.108;8.280;2023-06-10T04:09:53;11.65;;;10.40;;
79638;SDS011;69114;49.108;8.280;2023-06-10T04:12:18;11.33;;;10.17;;
79638;SDS011;69114;49.108;8.280;2023-06-10T04:14:43;11.23;;;10.03;;
79638;SDS011;69114;49.108;8.280;2023-06-10T04:17:09;12.53;;;10.60;;
79638;SDS011;69114;49.108;8.280;2023-06-10T04:19:34;12.10;;;10.85;;
79638;SDS011;69114;49.108;8.280;2023-06-10T04:22:00;12.43;;;10.93;;
79638;SDS011;69114;49.108;8.280;2023-06-10T04:24:25;13.38;;;12.02;;
79638;SDS011;69114;49.108;8.280;2023-06-10T04:26:51;14.82;;;11.50;;
79638;SDS011;69114;49.108;8.280;2023-06-10T04:29:16;15.63;;;11.73;;
79638;SDS011;69114;49.108;8.280;2023-06-10T04:31:41;12.73;;;11.43;;
79638;SDS011;69114;49.108;8.280;2023-06-10T04:34:06;14.37;;;11.53;;
79638;SDS011;69114;49.108;8.280;2023-06-10T04:36:32;13.52;;;11.02;;
79638;SDS011;69114;49.108;8.280;2023-06-10T04:38:57;13.47;;;12.07;;
79638;SDS011;69114;49.108;8.280;2023-06-10T04:41:23;14.13;;;11.93;;
79638;SDS011;69114;49.108;8.280;2023-06-10T04:43:48;14.83;;;12.30;;
79638;SDS011;69114;49.108;8.280;2023-06-10T04:46:13;13.33;;;11.47;;
79638;SDS011;69114;49.108;8.280;2023-06-10T04:48:38;14.23;;;12.07;;
79638;SDS011;69114;49.108;8.280;2023-06-10T04:51:04;14.80;;;12.77;;
79638;SDS011;69114;49.108;8.280;2023-06-10T04:53:30;13.73;;;12.10;;
79638;SDS011;69114;49.108;8.280;2023-06-10T04:55:56;13.05;;;11.73;;
79638;SDS011;69114;49.108;8.280;2023-06-10T04:58:22;13.43;;;11.82;;
79638;SDS011;69114;49.108;8.280;2023-06-10T05:00:47;15.90;;;11.73;;
79638;SDS011;69114;49.108;8.280;2023-06-10T05:03:12;14.33;;;10.80;;
79638;SDS011;69114;49.108;8.280;2023-06-10T05:05:38;12.83;;;11.60;;
79638;SDS011;69114;49.108;8.280;2023-06-10T05:08:03;13.40;;;11.17;;
79638;SDS011;69114;49.108;8.280;2023-06-10T05:10:28;13.10;;;11.38;;
79638;SDS011;69114;49.108;8.280;2023-06-10T05:12:56;13.15;;;11.65;;
79638;SDS011;69114;49.108;8.280;2023-06-10T05:15:22;14.25;;;11.27;;
79638;SDS011;69114;49.108;8.280;2023-06-10T05:17:47;12.68;;;11.05;;
79638;SDS011;69114;49.108;8.280;2023-06-10T05:20:13;13.97;;;11.43;;
79638;SDS011;69114;49.108;8.280;2023-06-10T05:22:38;12.80;;;11.13;;
79638;SDS011;69114;49.108;8.280;2023-06-10T05:25:04;13.60;;;11.73;;
79638;SDS011;69114;49.108;8.280;2023-06-10T05:27:29;11.77;;;10.55;;
79638;SDS011;69114;49.108;8.280;2023-06-10T05:29:54;13.57;;;11.23;;
79638;SDS011;69114;49.108;8.280;2023-06-10T05:32:20;12.77;;;11.40;;
79638;SDS011;69114;49.108;8.280;2023-06-10T05:34:45;12.40;;;10.57;;
79638;SDS011;69114;49.108;8.280;2023-06-10T05:37:10;13.07;;;11.07;;
79638;SDS011;69114;49.108;8.280;2023-06-10T05:39:35;13.77;;;11.77;;
79638;SDS011;69114;49.108;8.280;2023-06-10T05:42:03;13.40;;;10.65;;
79638;SDS011;69114;49.108;8.280;2023-06-10T05:44:28;12.82;;;11.13;;
79638;SDS011;69114;49.108;8.280;2023-06-10T05:46:53;12.37;;;11.07;;
79638;SDS011;69114;49.108;8.280;2023-06-10T05:49:19;13.13;;;11.10;;
79638;SDS011;69114;49.108;8.280;2023-06-10T05:51:44;12.70;;;11.07;;
79638;SDS011;69114;49.108;8.280;2023-06-10T05:54:09;13.73;;;11.33;;
79638;SDS011;69114;49.108;8.280;2023-06-10T05:56:34;12.70;;;11.23;;
79638;SDS011;69114;49.108;8.280;2023-06-10T05:59:00;12.37;;;11.17;;
79638;SDS011;69114;49.108;8.280;2023-06-10T06:01:25;15.03;;;10.90;;
79638;SDS011;69114;49.108;8.280;2023-06-10T06:03:50;11.20;;;9.57;;
79638;SDS011;69114;49.108;8.280;2023-06-10T06:06:15;15.57;;;11.63;;
79638;SDS011;69114;49.108;8.280;2023-06-10T06:08:40;11.50;;;10.20;;
79638;SDS011;69114;49.108;8.280;2023-06-10T06:11:06;12.43;;;10.17;;
79638;SDS011;69114;49.108;8.280;2023-06-10T06:13:31;12.63;;;10.97;;
79638;SDS011;69114;49.108;8.280;2023-06-10T06:15:56;14.40;;;10.70;;
79638;SDS011;69114;49.108;8.280;2023-06-10T06:18:21;12.43;;;10.97;;
79638;SDS011;69114;49.108;8.280;2023-06-10T06:20:46;12.20;;;10.67;;
79638;SDS011;69114;49.108;8.280;2023-06-10T06:23:12;13.70;;;9.73;;
79638;SDS011;69114;49.108;8.280;2023-06-10T06:25:37;11.40;;;9.93;;
79638;SDS011;69114;49.108;8.280;2023-06-10T06:28:05;10.85;;;9.52;;
79638;SDS011;69114;49.108;8.280;2023-06-10T06:30:30;11.82;;;9.02;;
79638;SDS011;69114;49.108;8.280;2023-06-10T06:32:55;9.37;;;7.93;;
79638;SDS011;69114;49.108;8.280;2023-06-10T06:35:21;10.13;;;8.93;;
79638;SDS011;69114;49.108;8.280;2023-06-10T06:37:46;9.23;;;7.40;;
79638;SDS011;69114;49.108;8.280;2023-06-10T06:40:11;10.87;;;7.13;;
79638;SDS011;69114;49.108;8.280;2023-06-10T06:42:36;8.63;;;7.68;;
79638;SDS011;69114;49.108;8.280;2023-06-10T06:45:02;7.90;;;6.90;;
79638;SDS011;69114;49.108;8.280;2023-06-10T06:47:27;11.00;;;7.57;;
79638;SDS011;69114;49.108;8.280;2023-06-10T06:49:52;7.90;;;6.77;;
79638;SDS011;69114;49.108;8.280;2023-06-10T06:52:17;12.37;;;6.43;;
79638;SDS011;69114;49.108;8.280;2023-06-10T06:54:44;8.52;;;6.70;;
79638;SDS011;69114;49.108;8.280;2023-06-10T06:57:09;8.33;;;6.70;;
79638;SDS011;69114;49.108;8.280;2023-06-10T06:59:34;7.87;;;7.07;;
79638;SDS011;69114;49.108;8.280;2023-06-10T07:01:59;7.93;;;6.10;;
79638;SDS011;69114;49.108;8.280;2023-06-10T07:04:24;9.27;;;6.43;;
79638;SDS011;69114;49.108;8.280;2023-06-10T07:06:50;8.10;;;6.20;;
79638;SDS011;69114;49.108;8.280;2023-06-10T07:09:15;9.05;;;6.22;;
79638;SDS011;69114;49.108;8.280;2023-06-10T07:11:40;6.67;;;5.97;;
79638;SDS011;69114;49.108;8.280;2023-06-10T07:14:06;7.82;;;6.93;;
79638;SDS011;69114;49.108;8.280;2023-06-10T07:16:31;6.90;;;6.05;;
79638;SDS011;69114;49.108;8.280;2023-06-10T07:18:56;8.10;;;6.90;;
79638;SDS011;69114;49.108;8.280;2023-06-10T07:21:22;9.55;;;7.18;;
79638;SDS011;69114;49.108;8.280;2023-06-10T07:23:48;6.65;;;5.95;;
79638;SDS011;69114;49.108;8.280;2023-06-10T07:26:14;6.97;;;6.28;;
79638;SDS011;69114;49.108;8.280;2023-06-10T07:28:39;7.65;;;6.70;;
79638;SDS011;69114;49.108;8.280;2023-06-10T07:31:05;8.50;;;6.35;;
79638;SDS011;69114;49.108;8.280;2023-06-10T07:33:30;8.13;;;6.15;;
79638;SDS011;69114;49.108;8.280;2023-06-10T07:35:55;7.73;;;5.93;;
79638;SDS011;69114;49.108;8.280;2023-06-10T07:38:21;6.70;;;6.00;;
79638;SDS011;69114;49.108;8.280;2023-06-10T07:40:46;8.27;;;6.57;;
79638;SDS011;69114;49.108;8.280;2023-06-10T07:43:11;7.30;;;6.38;;
79638;SDS011;69114;49.108;8.280;2023-06-10T07:45:39;8.60;;;6.27;;
79638;SDS011;69114;49.108;8.280;2023-06-10T07:48:04;6.70;;;5.72;;
79638;SDS011;69114;49.108;8.280;2023-06-10T07:50:29;7.43;;;5.43;;
79638;SDS011;69114;49.108;8.280;2023-06-10T07:52:54;6.73;;;6.03;;
79638;SDS011;69114;49.108;8.280;2023-06-10T07:55:20;9.18;;;6.20;;
79638;SDS011;69114;49.108;8.280;2023-06-10T07:57:45;8.63;;;5.70;;
79638;SDS011;69114;49.108;8.280;2023-06-10T08:00:10;7.50;;;6.03;;
79638;SDS011;69114;49.108;8.280;2023-06-10T08:02:35;7.18;;;5.95;;
79638;SDS011;69114;49.108;8.280;2023-06-10T08:05:01;6.93;;;6.23;;
79638;SDS011;69114;49.108;8.280;2023-06-10T08:07:27;5.97;;;5.30;;
79638;SDS011;69114;49.108;8.280;2023-06-10T08:09:52;6.68;;;5.65;;
79638;SDS011;69114;49.108;8.280;2023-06-10T08:12:18;6.50;;;5.90;;
79638;SDS011;69114;49.108;8.280;2023-06-10T08:14:43;6.15;;;5.53;;
79638;SDS011;69114;49.108;8.280;2023-06-10T08:17:08;6.97;;;6.20;;
79638;SDS011;69114;49.108;8.280;2023-06-10T08:19:34;6.00;;;5.40;;
79638;SDS011;69114;49.108;8.280;2023-06-10T08:21:59;6.60;;;5.47;;
79638;SDS011;69114;49.108;8.280;2023-06-10T08:24:24;6.47;;;5.43;;
79638;SDS011;69114;49.108;8.280;2023-06-10T08:26:49;6.77;;;6.07;;
79638;SDS011;69114;49.108;8.280;2023-06-10T08:29:15;6.60;;;5.60;;
79638;SDS011;69114;49.108;8.280;2023-06-10T08:31:43;6.87;;;5.83;;
79638;SDS011;69114;49.108;8.280;2023-06-10T08:34:08;5.70;;;5.10;;
79638;SDS011;69114;49.108;8.280;2023-06-10T08:36:34;5.97;;;5.20;;
79638;SDS011;69114;49.108;8.280;2023-06-10T08:38:59;6.33;;;5.67;;
79638;SDS011;69114;49.108;8.280;2023-06-10T08:41:25;6.45;;;5.43;;
79638;SDS011;69114;49.108;8.280;2023-06-10T08:43:59;6.70;;;5.40;;
79638;SDS011;69114;49.108;8.280;2023-06-10T08:46:28;5.47;;;4.88;;
79638;SDS011;69114;49.108;8.280;2023-06-10T08:48:56;6.00;;;5.35;;
79638;SDS011;69114;49.108;8.280;2023-06-10T08:51:25;5.88;;;5.20;;
79638;SDS011;69114;49.108;8.280;2023-06-10T08:53:53;5.68;;;5.07;;
79638;SDS011;69114;49.108;8.280;2023-06-10T08:56:24;6.50;;;5.80;;
79638;SDS011;69114;49.108;8.280;2023-06-10T08:58:51;6.63;;;5.70;;
79638;SDS011;69114;49.108;8.280;2023-06-10T09:01:17;6.20;;;5.57;;
79638;SDS011;69114;49.108;8.280;2023-06-10T09:03:43;7.25;;;5.50;;
79638;SDS011;69114;49.108;8.280;2023-06-10T09:06:08;5.83;;;4.80;;
79638;SDS011;69114;49.108;8.280;2023-06-10T09:08:33;6.03;;;5.30;;
79638;SDS011;69114;49.108;8.280;2023-06-10T09:11:00;6.20;;;5.38;;
79638;SDS011;69114;49.108;8.280;2023-06-10T09:13:25;6.47;;;5.43;;
79638;SDS011;69114;49.108;8.280;2023-06-10T09:15:50;6.10;;;5.50;;
79638;SDS011;69114;49.108;8.280;2023-06-10T09:18:16;5.80;;;5.20;;
79638;SDS011;69114;49.108;8.280;2023-06-10T09:20:42;6.43;;;5.65;;
79638;SDS011;69114;49.108;8.280;2023-06-10T09:23:07;6.88;;;5.47;;
79638;SDS011;69114;49.108;8.280;2023-06-10T09:25:37;6.22;;;5.63;;
79638;SDS011;69114;49.108;8.280;2023-06-10T09:28:03;5.88;;;5.28;;
79638;SDS011;69114;49.108;8.280;2023-06-10T09:30:29;6.18;;;5.20;;
79638;SDS011;69114;49.108;8.280;2023-06-10T09:32:55;7.07;;;5.93;;
79638;SDS011;69114;49.108;8.280;2023-06-10T09:35:22;6.85;;;5.13;;
79638;SDS011;69114;49.108;8.280;2023-06-10T09:37:48;6.88;;;5.80;;
79638;SDS011;69114;49.108;8.280;2023-06-10T09:40:14;6.05;;;5.30;;
79638;SDS011;69114;49.108;8.280;2023-06-10T09:42:40;9.37;;;5.97;;
79638;SDS011;69114;49.108;8.280;2023-06-10T09:45:05;11.17;;;6.17;;
79638;SDS011;69114;49.108;8.280;2023-06-10T09:47:31;8.15;;;5.40;;
79638;SDS011;69114;49.108;8.280;2023-06-10T09:49:56;10.48;;;5.70;;
79638;SDS011;69114;49.108;8.280;2023-06-10T09:52:25;8.70;;;5.80;;
79638;SDS011;69114;49.108;8.280;2023-06-10T09:54:51;7.88;;;5.03;;
79638;SDS011;69114;49.108;8.280;2023-06-10T09:57:17;25.15;;;7.32;;
79638;SDS011;69114;49.108;8.280;2023-06-10T09:59:42;7.82;;;5.38;;
79638;SDS011;69114;49.108;8.280;2023-06-10T10:02:17;10.00;;;5.47;;
79638;SDS011;69114;49.108;8.280;2023-06-10T10:04:42;14.45;;;5.90;;
79638;SDS011;69114;49.108;8.280;2023-06-10T10:07:08;8.43;;;5.63;;
79638;SDS011;69114;49.108;8.280;2023-06-10T10:09:35;7.45;;;5.32;;
79638;SDS011;69114;49.108;8.280;2023-06-10T10:12:01;8.23;;;6.13;;
79638;SDS011;69114;49.108;8.280;2023-06-10T10:14:27;6.78;;;5.53;;
79638;SDS011;69114;49.108;8.280;2023-06-10T10:16:53;11.20;;;5.80;;
79638;SDS011;69114;49.108;8.280;2023-06-10T10:19:20;6.20;;;4.95;;
79638;SDS011;69114;49.108;8.280;2023-06-10T10:21:57;7.10;;;5.25;;
79638;SDS011;69114;49.108;8.280;2023-06-10T10:24:36;5.65;;;5.15;;
79638;SDS011;69114;49.108;8.280;2023-06-10T10:27:01;6.25;;;5.32;;
79638;SDS011;69114;49.108;8.280;2023-06-10T10:29:31;6.03;;;5.22;;
79638;SDS011;69114;49.108;8.280;2023-06-10T10:31:58;13.90;;;6.03;;
79638;SDS011;69114;49.108;8.280;2023-06-10T10:34:43;9.90;;;5.30;;
79638;SDS011;69114;49.108;8.280;2023-06-10T10:37:12;5.80;;;5.25;;
79638;SDS011;69114;49.108;8.280;2023-06-10T10:39:37;10.97;;;5.30;;
79638;SDS011;69114;49.108;8.280;2023-06-10T10:42:03;6.30;;;5.53;;
79638;SDS011;69114;49.108;8.280;2023-06-10T10:44:29;7.00;;;5.65;;
79638;SDS011;69114;49.108;8.280;2023-06-10T10:46:55;5.65;;;5.15;;
79638;SDS011;69114;49.108;8.280;2023-06-10T10:49:21;5.65;;;4.85;;
79638;SDS011;69114;49.108;8.280;2023-06-10T10:51:57;5.88;;;5.30;;
79638;SDS011;69114;49.108;8.280;2023-06-10T10:54:29;6.88;;;5.50;;
79638;SDS011;69114;49.108;8.280;2023-06-10T10:57:11;6.00;;;5.40;;
79638;SDS011;69114;49.108;8.280;2023-06-10T11:00:10;7.38;;;5.05;;
79638;SDS011;69114;49.108;8.280;2023-06-10T11:04:58;5.93;;;4.85;;
79638;SDS011;69114;49.108;8.280;2023-06-10T11:07:26;5.45;;;4.95;;
79638;SDS011;69114;49.108;8.280;2023-06-10T11:09:57;7.28;;;5.40;;
79638;SDS011;69114;49.108;8.280;2023-06-10T11:12:23;6.50;;;4.93;;
79638;SDS011;69114;49.108;8.280;2023-06-10T11:14:53;5.57;;;5.07;;
79638;SDS011;69114;49.108;8.280;2023-06-10T11:17:19;6.15;;;5.55;;
79638;SDS011;69114;49.108;8.280;2023-06-10T11:19:45;5.97;;;4.82;;
79638;SDS011;69114;49.108;8.280;2023-06-10T11:22:15;5.75;;;4.88;;
79638;SDS011;69114;49.108;8.280;2023-06-10T11:27:15;6.35;;;5.03;;
79638;SDS011;69114;49.108;8.280;2023-06-10T11:29:55;5.65;;;5.15;;
79638;SDS011;69114;49.108;8.280;2023-06-10T11:32:20;5.63;;;5.03;;
79638;SDS011;69114;49.108;8.280;2023-06-10T11:34:51;8.55;;;5.35;;
79638;SDS011;69114;49.108;8.280;2023-06-10T11:37:16;6.03;;;5.50;;
79638;SDS011;69114;49.108;8.280;2023-06-10T11:39:42;5.45;;;4.95;;
79638;SDS011;69114;49.108;8.280;2023-06-10T11:42:07;5.20;;;4.72;;
79638;SDS011;69114;49.108;8.280;2023-06-10T11:44:33;6.10;;;4.93;;
79638;SDS011;69114;49.108;8.280;2023-06-10T11:47:02;5.53;;;4.95;;
79638;SDS011;69114;49.108;8.280;2023-06-10T11:49:27;6.43;;;5.10;;
79638;SDS011;69114;49.108;8.280;2023-06-10T11:51:53;6.60;;;5.93;;
79638;SDS011;69114;49.108;8.280;2023-06-10T11:54:18;5.47;;;4.83;;
79638;SDS011;69114;49.108;8.280;2023-06-10T11:56:43;6.67;;;5.70;;
79638;SDS011;69114;49.108;8.280;2023-06-10T11:59:08;6.03;;;5.50;;
79638;SDS011;69114;49.108;8.280;2023-06-10T12:01:37;5.82;;;5.25;;
79638;SDS011;69114;49.108;8.280;2023-06-10T12:04:07;6.13;;;5.35;;
79638;SDS011;69114;49.108;8.280;2023-06-10T12:09:12;5.22;;;4.72;;
79638;SDS011;69114;49.108;8.280;2023-06-10T12:11:38;6.85;;;5.13;;
79638;SDS011;69114;49.108;8.280;2023-06-10T12:14:04;5.72;;;5.00;;
79638;SDS011;69114;49.108;8.280;2023-06-10T12:16:31;6.25;;;4.65;;
79638;SDS011;69114;49.108;8.280;2023-06-10T12:19:00;5.43;;;4.93;;
79638;SDS011;69114;49.108;8.280;2023-06-10T12:21:26;6.05;;;4.80;;
79638;SDS011;69114;49.108;8.280;2023-06-10T12:24:01;5.70;;;4.57;;
79638;SDS011;69114;49.108;8.280;2023-06-10T12:27:00;6.20;;;4.82;;
79638;SDS011;69114;49.108;8.280;2023-06-10T12:29:24;5.78;;;5.28;;
79638;SDS011;69114;49.108;8.280;2023-06-10T12:34:32;5.13;;;4.63;;
79638;SDS011;69114;49.108;8.280;2023-06-10T12:36:58;5.57;;;4.72;;
79638;SDS011;69114;49.108;8.280;2023-06-10T12:39:23;5.60;;;5.10;;
79638;SDS011;69114;49.108;8.280;2023-06-10T12:41:48;6.90;;;4.90;;
79638;SDS011;69114;49.108;8.280;2023-06-10T12:44:14;5.80;;;5.30;;
79638;SDS011;69114;49.108;8.280;2023-06-10T12:46:40;7.35;;;5.28;;
79638;SDS011;69114;49.108;8.280;2023-06-10T12:49:05;5.43;;;4.90;;
79638;SDS011;69114;49.108;8.280;2023-06-10T12:51:30;6.03;;;4.67;;
79638;SDS011;69114;49.108;8.280;2023-06-10T12:53:55;5.30;;;4.80;;
79638;SDS011;69114;49.108;8.280;2023-06-10T12:56:20;5.10;;;4.53;;
79638;SDS011;69114;49.108;8.280;2023-06-10T12:58:47;5.05;;;4.55;;
79638;SDS011;69114;49.108;8.280;2023-06-10T13:01:12;5.15;;;4.65;;
79638;SDS011;69114;49.108;8.280;2023-06-10T13:03:38;6.30;;;4.50;;
79638;SDS011;69114;49.108;8.280;2023-06-10T13:06:04;4.93;;;4.45;;
79638;SDS011;69114;49.108;8.280;2023-06-10T13:08:30;4.93;;;4.43;;
79638;SDS011;69114;49.108;8.280;2023-06-10T13:10:55;5.10;;;4.60;;
79638;SDS011;69114;49.108;8.280;2023-06-10T13:13:21;5.97;;;4.93;;
79638;SDS011;69114;49.108;8.280;2023-06-10T13:15:46;5.17;;;4.67;;
79638;SDS011;69114;49.108;8.280;2023-06-10T13:18:11;6.07;;;4.60;;
79638;SDS011;69114;49.108;8.280;2023-06-10T13:20:36;7.73;;;4.70;;
79638;SDS011;69114;49.108;8.280;2023-06-10T13:23:01;5.67;;;4.20;;
79638;SDS011;69114;49.108;8.280;2023-06-10T13:25:27;5.47;;;4.70;;
79638;SDS011;69114;49.108;8.280;2023-06-10T13:27:52;4.87;;;4.37;;
79638;SDS011;69114;49.108;8.280;2023-06-10T13:30:17;4.97;;;4.30;;
79638;SDS011;69114;49.108;8.280;2023-06-10T13:32:42;5.50;;;5.00;;
79638;SDS011;69114;49.108;8.280;2023-06-10T13:35:08;5.60;;;4.50;;
79638;SDS011;69114;49.108;8.280;2023-06-10T13:37:33;5.78;;;5.25;;
79638;SDS011;69114;49.108;8.280;2023-06-10T13:39:59;4.68;;;4.28;;
79638;SDS011;69114;49.108;8.280;2023-06-10T13:42:27;6.03;;;4.40;;
79638;SDS011;69114;49.108;8.280;2023-06-10T13:44:54;4.50;;;3.90;;
79638;SDS011;69114;49.108;8.280;2023-06-10T13:47:19;4.37;;;3.97;;
79638;SDS011;69114;49.108;8.280;2023-06-10T13:49:44;4.33;;;3.77;;
79638;SDS011;69114;49.108;8.280;2023-06-10T13:52:09;4.83;;;4.07;;
79638;SDS011;69114;49.108;8.280;2023-06-10T13:54:34;5.10;;;4.20;;
79638;SDS011;69114;49.108;8.280;2023-06-10T13:57:03;5.03;;;4.25;;
79638;SDS011;69114;49.108;8.280;2023-06-10T13:59:28;4.45;;;4.00;;
79638;SDS011;69114;49.108;8.280;2023-06-10T14:01:53;4.63;;;4.17;;
79638;SDS011;69114;49.108;8.280;2023-06-10T14:04:19;4.10;;;3.70;;
79638;SDS011;69114;49.108;8.280;2023-06-10T14:06:44;5.23;;;3.80;;
79638;SDS011;69114;49.108;8.280;2023-06-10T14:09:11;5.30;;;4.20;;
79638;SDS011;69114;49.108;8.280;2023-06-10T14:11:37;6.35;;;4.25;;
79638;SDS011;69114;49.108;8.280;2023-06-10T14:14:02;5.53;;;4.57;;
79638;SDS011;69114;49.108;8.280;2023-06-10T14:16:27;4.53;;;3.67;;
79638;SDS011;69114;49.108;8.280;2023-06-10T14:18:53;6.63;;;4.10;;
79638;SDS011;69114;49.108;8.280;2023-06-10T14:21:18;5.27;;;4.00;;
79638;SDS011;69114;49.108;8.280;2023-06-10T14:23:43;5.18;;;4.28;;
79638;SDS011;69114;49.108;8.280;2023-06-10T14:26:09;4.53;;;4.13;;
79638;SDS011;69114;49.108;8.280;2023-06-10T14:28:34;4.40;;;4.00;;
79638;SDS011;69114;49.108;8.280;2023-06-10T14:31:00;4.67;;;3.60;;
79638;SDS011;69114;49.108;8.280;2023-06-10T14:33:25;4.63;;;4.07;;
79638;SDS011;69114;49.108;8.280;2023-06-10T14:35:50;4.10;;;3.70;;
79638;SDS011;69114;49.108;8.280;2023-06-10T14:38:15;5.73;;;4.07;;
79638;SDS011;69114;49.108;8.280;2023-06-10T14:40:40;4.50;;;4.10;;
79638;SDS011;69114;49.108;8.280;2023-06-10T14:43:06;4.80;;;4.07;;
79638;SDS011;69114;49.108;8.280;2023-06-10T14:45:38;5.05;;;4.07;;
79638;SDS011;69114;49.108;8.280;2023-06-10T14:48:04;4.88;;;4.38;;